sensor_id;sensor_type;location;lat;lon;timestamp;P1;durP1;ratioP1;P2;durP2;ratioP2
33993;SDS011;20673;48.980;8.138;2022-07-29T00:00:59;3.22;;;2.65;;
33993;SDS011;20673;48.980;8.138;2022-07-29T00:03:26;4.08;;;2.42;;
33993;SDS011;20673;48.980;8.138;2022-07-29T00:05:52;3.92;;;2.52;;
33993;SDS011;20673;48.980;8.138;2022-07-29T00:08:19;3.65;;;2.62;;
33993;SDS011;20673;48.980;8.138;2022-07-29T00:10:45;4.58;;;2.33;;
33993;SDS011;20673;48.980;8.138;2022-07-29T00:13:11;5.12;;;3.08;;
33993;SDS011;20673;48.980;8.138;2022-07-29T00:15:37;4.25;;;2.50;;
33993;SDS011;20673;48.980;8.138;2022-07-29T00:18:04;2.85;;;2.58;;
33993;SDS011;20673;48.980;8.138;2022-07-29T00:20:30;3.98;;;2.58;;
33993;SDS011;20673;48.980;8.138;2022-07-29T00:22:56;2.80;;;2.50;;
33993;SDS011;20673;48.980;8.138;2022-07-29T00:25:23;3.90;;;2.62;;
33993;SDS011;20673;48.980;8.138;2022-07-29T00:27:49;3.35;;;2.55;;
33993;SDS011;20673;48.980;8.138;2022-07-29T00:30:15;6.67;;;2.80;;
33993;SDS011;20673;48.980;8.138;2022-07-29T00:32:41;4.27;;;2.77;;
33993;SDS011;20673;48.980;8.138;2022-07-29T00:35:08;4.30;;;2.50;;
33993;SDS011;20673;48.980;8.138;2022-07-29T00:37:53;3.47;;;2.85;;
33993;SDS011;20673;48.980;8.138;2022-07-29T00:40:19;6.70;;;3.40;;
33993;SDS011;20673;48.980;8.138;2022-07-29T00:42:47;4.78;;;3.27;;
33993;SDS011;20673;48.980;8.138;2022-07-29T00:45:16;3.85;;;2.80;;
33993;SDS011;20673;48.980;8.138;2022-07-29T00:47:43;3.60;;;3.03;;
33993;SDS011;20673;48.980;8.138;2022-07-29T00:50:10;5.17;;;3.10;;
33993;SDS011;20673;48.980;8.138;2022-07-29T00:52:38;6.93;;;3.23;;
33993;SDS011;20673;48.980;8.138;2022-07-29T00:55:07;5.20;;;3.27;;
33993;SDS011;20673;48.980;8.138;2022-07-29T00:57:36;4.20;;;2.90;;
33993;SDS011;20673;48.980;8.138;2022-07-29T01:00:06;6.13;;;3.50;;
33993;SDS011;20673;48.980;8.138;2022-07-29T01:02:36;6.33;;;3.23;;
33993;SDS011;20673;48.980;8.138;2022-07-29T01:05:03;4.47;;;3.27;;
33993;SDS011;20673;48.980;8.138;2022-07-29T01:07:31;6.37;;;3.13;;
33993;SDS011;20673;48.980;8.138;2022-07-29T01:10:05;6.70;;;3.50;;
33993;SDS011;20673;48.980;8.138;2022-07-29T01:12:35;7.53;;;3.50;;
33993;SDS011;20673;48.980;8.138;2022-07-29T01:15:04;4.70;;;3.17;;
33993;SDS011;20673;48.980;8.138;2022-07-29T01:17:43;5.95;;;3.22;;
33993;SDS011;20673;48.980;8.138;2022-07-29T01:28:47;6.50;;;3.40;;
33993;SDS011;20673;48.980;8.138;2022-07-29T01:31:19;4.85;;;3.62;;
33993;SDS011;20673;48.980;8.138;2022-07-29T01:33:49;5.75;;;3.92;;
33993;SDS011;20673;48.980;8.138;2022-07-29T01:36:27;5.80;;;3.90;;
33993;SDS011;20673;48.980;8.138;2022-07-29T01:42:04;7.12;;;4.05;;
33993;SDS011;20673;48.980;8.138;2022-07-29T01:44:33;7.90;;;4.15;;
33993;SDS011;20673;48.980;8.138;2022-07-29T01:47:17;6.93;;;3.43;;
33993;SDS011;20673;48.980;8.138;2022-07-29T01:49:48;4.35;;;3.47;;
33993;SDS011;20673;48.980;8.138;2022-07-29T01:52:20;6.27;;;3.80;;
33993;SDS011;20673;48.980;8.138;2022-07-29T01:55:07;4.87;;;4.33;;
33993;SDS011;20673;48.980;8.138;2022-07-29T01:57:42;4.67;;;3.85;;
33993;SDS011;20673;48.980;8.138;2022-07-29T02:00:12;4.60;;;4.20;;
33993;SDS011;20673;48.980;8.138;2022-07-29T02:02:40;6.13;;;3.97;;
33993;SDS011;20673;48.980;8.138;2022-07-29T02:05:10;4.73;;;4.10;;
33993;SDS011;20673;48.980;8.138;2022-07-29T02:07:41;4.45;;;4.05;;
33993;SDS011;20673;48.980;8.138;2022-07-29T02:10:12;4.57;;;4.17;;
33993;SDS011;20673;48.980;8.138;2022-07-29T02:12:38;5.25;;;4.15;;
33993;SDS011;20673;48.980;8.138;2022-07-29T02:15:08;4.93;;;3.80;;
33993;SDS011;20673;48.980;8.138;2022-07-29T02:17:46;5.77;;;4.13;;
33993;SDS011;20673;48.980;8.138;2022-07-29T02:20:18;6.08;;;3.70;;
33993;SDS011;20673;48.980;8.138;2022-07-29T02:22:45;6.47;;;4.15;;
33993;SDS011;20673;48.980;8.138;2022-07-29T02:25:15;5.03;;;4.13;;
33993;SDS011;20673;48.980;8.138;2022-07-29T02:27:43;6.10;;;4.23;;
33993;SDS011;20673;48.980;8.138;2022-07-29T02:30:12;4.17;;;3.63;;
33993;SDS011;20673;48.980;8.138;2022-07-29T02:32:39;6.47;;;4.00;;
33993;SDS011;20673;48.980;8.138;2022-07-29T02:35:08;5.20;;;4.67;;
33993;SDS011;20673;48.980;8.138;2022-07-29T02:37:36;4.50;;;3.90;;
33993;SDS011;20673;48.980;8.138;2022-07-29T02:40:03;6.00;;;4.05;;
33993;SDS011;20673;48.980;8.138;2022-07-29T02:42:33;7.20;;;4.60;;
33993;SDS011;20673;48.980;8.138;2022-07-29T02:45:03;5.42;;;4.20;;
33993;SDS011;20673;48.980;8.138;2022-07-29T02:47:41;6.27;;;4.57;;
33993;SDS011;20673;48.980;8.138;2022-07-29T02:50:21;4.37;;;3.97;;
33993;SDS011;20673;48.980;8.138;2022-07-29T02:53:02;4.17;;;3.77;;
33993;SDS011;20673;48.980;8.138;2022-07-29T03:00:58;7.00;;;4.30;;
33993;SDS011;20673;48.980;8.138;2022-07-29T03:03:29;4.30;;;3.90;;
33993;SDS011;20673;48.980;8.138;2022-07-29T03:06:00;6.17;;;4.42;;
33993;SDS011;20673;48.980;8.138;2022-07-29T03:08:28;4.43;;;4.03;;
33993;SDS011;20673;48.980;8.138;2022-07-29T03:10:57;5.23;;;4.73;;
33993;SDS011;20673;48.980;8.138;2022-07-29T03:13:26;4.57;;;3.93;;
33993;SDS011;20673;48.980;8.138;2022-07-29T03:15:54;5.03;;;4.47;;
33993;SDS011;20673;48.980;8.138;2022-07-29T03:18:23;7.45;;;4.58;;
33993;SDS011;20673;48.980;8.138;2022-07-29T03:20:51;4.80;;;4.07;;
33993;SDS011;20673;48.980;8.138;2022-07-29T03:23:21;8.97;;;5.03;;
33993;SDS011;20673;48.980;8.138;2022-07-29T03:25:49;4.33;;;3.92;;
33993;SDS011;20673;48.980;8.138;2022-07-29T03:28:16;6.00;;;4.57;;
33993;SDS011;20673;48.980;8.138;2022-07-29T03:30:42;6.72;;;4.90;;
33993;SDS011;20673;48.980;8.138;2022-07-29T03:33:08;4.55;;;4.10;;
33993;SDS011;20673;48.980;8.138;2022-07-29T03:35:35;5.22;;;4.35;;
33993;SDS011;20673;48.980;8.138;2022-07-29T03:38:01;5.27;;;4.47;;
33993;SDS011;20673;48.980;8.138;2022-07-29T03:40:48;9.10;;;5.00;;
33993;SDS011;20673;48.980;8.138;2022-07-29T03:43:20;5.55;;;5.00;;
33993;SDS011;20673;48.980;8.138;2022-07-29T03:45:51;5.27;;;4.50;;
33993;SDS011;20673;48.980;8.138;2022-07-29T03:48:20;6.47;;;4.80;;
33993;SDS011;20673;48.980;8.138;2022-07-29T03:50:49;6.07;;;5.47;;
33993;SDS011;20673;48.980;8.138;2022-07-29T03:53:16;4.92;;;4.42;;
33993;SDS011;20673;48.980;8.138;2022-07-29T03:55:45;5.30;;;4.80;;
33993;SDS011;20673;48.980;8.138;2022-07-29T03:58:15;4.97;;;4.58;;
33993;SDS011;20673;48.980;8.138;2022-07-29T04:00:43;6.08;;;4.95;;
33993;SDS011;20673;48.980;8.138;2022-07-29T04:03:11;7.43;;;5.10;;
33993;SDS011;20673;48.980;8.138;2022-07-29T04:05:38;5.15;;;4.65;;
33993;SDS011;20673;48.980;8.138;2022-07-29T04:08:05;5.85;;;5.20;;
33993;SDS011;20673;48.980;8.138;2022-07-29T04:10:31;9.20;;;4.80;;
33993;SDS011;20673;48.980;8.138;2022-07-29T04:12:58;8.13;;;5.10;;
33993;SDS011;20673;48.980;8.138;2022-07-29T04:15:25;6.12;;;5.17;;
33993;SDS011;20673;48.980;8.138;2022-07-29T04:17:52;6.10;;;4.97;;
33993;SDS011;20673;48.980;8.138;2022-07-29T04:20:18;6.67;;;5.00;;
33993;SDS011;20673;48.980;8.138;2022-07-29T04:22:45;6.58;;;5.17;;
33993;SDS011;20673;48.980;8.138;2022-07-29T04:25:11;7.10;;;5.45;;
33993;SDS011;20673;48.980;8.138;2022-07-29T04:27:37;6.67;;;5.20;;
33993;SDS011;20673;48.980;8.138;2022-07-29T04:30:05;7.60;;;5.00;;
33993;SDS011;20673;48.980;8.138;2022-07-29T04:32:32;5.67;;;4.55;;
33993;SDS011;20673;48.980;8.138;2022-07-29T04:34:58;5.87;;;5.00;;
33993;SDS011;20673;48.980;8.138;2022-07-29T04:37:25;6.00;;;4.92;;
33993;SDS011;20673;48.980;8.138;2022-07-29T04:39:51;5.35;;;4.85;;
33993;SDS011;20673;48.980;8.138;2022-07-29T04:42:17;7.20;;;4.78;;
33993;SDS011;20673;48.980;8.138;2022-07-29T04:44:43;6.03;;;5.42;;
33993;SDS011;20673;48.980;8.138;2022-07-29T04:47:09;6.57;;;5.40;;
33993;SDS011;20673;48.980;8.138;2022-07-29T04:49:37;5.28;;;4.78;;
33993;SDS011;20673;48.980;8.138;2022-07-29T04:52:04;5.70;;;5.20;;
33993;SDS011;20673;48.980;8.138;2022-07-29T04:54:31;7.28;;;5.40;;
33993;SDS011;20673;48.980;8.138;2022-07-29T04:56:57;5.57;;;4.80;;
33993;SDS011;20673;48.980;8.138;2022-07-29T04:59:23;4.95;;;4.55;;
33993;SDS011;20673;48.980;8.138;2022-07-29T05:01:50;5.35;;;4.85;;
33993;SDS011;20673;48.980;8.138;2022-07-29T05:04:16;7.23;;;5.07;;
33993;SDS011;20673;48.980;8.138;2022-07-29T05:06:42;8.63;;;4.70;;
33993;SDS011;20673;48.980;8.138;2022-07-29T05:09:08;5.50;;;4.67;;
33993;SDS011;20673;48.980;8.138;2022-07-29T05:11:35;6.63;;;5.20;;
33993;SDS011;20673;48.980;8.138;2022-07-29T05:14:01;4.33;;;3.93;;
33993;SDS011;20673;48.980;8.138;2022-07-29T05:16:27;6.43;;;4.20;;
33993;SDS011;20673;48.980;8.138;2022-07-29T05:18:53;5.47;;;4.03;;
33993;SDS011;20673;48.980;8.138;2022-07-29T05:21:19;7.33;;;4.47;;
33993;SDS011;20673;48.980;8.138;2022-07-29T05:23:45;4.40;;;3.67;;
33993;SDS011;20673;48.980;8.138;2022-07-29T05:26:11;5.50;;;3.77;;
33993;SDS011;20673;48.980;8.138;2022-07-29T05:28:37;7.17;;;3.80;;
33993;SDS011;20673;48.980;8.138;2022-07-29T05:31:03;3.93;;;3.50;;
33993;SDS011;20673;48.980;8.138;2022-07-29T05:33:30;6.57;;;3.60;;
33993;SDS011;20673;48.980;8.138;2022-07-29T05:35:57;4.73;;;3.67;;
33993;SDS011;20673;48.980;8.138;2022-07-29T05:38:24;10.43;;;4.00;;
33993;SDS011;20673;48.980;8.138;2022-07-29T05:40:50;5.17;;;3.80;;
33993;SDS011;20673;48.980;8.138;2022-07-29T05:43:16;9.37;;;3.83;;
33993;SDS011;20673;48.980;8.138;2022-07-29T05:45:42;5.97;;;3.10;;
33993;SDS011;20673;48.980;8.138;2022-07-29T05:48:08;5.90;;;3.10;;
33993;SDS011;20673;48.980;8.138;2022-07-29T05:50:34;5.75;;;2.98;;
33993;SDS011;20673;48.980;8.138;2022-07-29T05:53:00;6.90;;;3.00;;
33993;SDS011;20673;48.980;8.138;2022-07-29T05:55:27;6.27;;;2.87;;
33993;SDS011;20673;48.980;8.138;2022-07-29T05:57:53;5.07;;;3.23;;
33993;SDS011;20673;48.980;8.138;2022-07-29T06:00:19;6.80;;;3.20;;
33993;SDS011;20673;48.980;8.138;2022-07-29T06:02:45;5.53;;;2.70;;
33993;SDS011;20673;48.980;8.138;2022-07-29T06:05:11;5.87;;;2.70;;
33993;SDS011;20673;48.980;8.138;2022-07-29T06:07:37;3.83;;;3.00;;
33993;SDS011;20673;48.980;8.138;2022-07-29T06:10:04;5.17;;;2.98;;
33993;SDS011;20673;48.980;8.138;2022-07-29T06:12:31;6.00;;;3.13;;
33993;SDS011;20673;48.980;8.138;2022-07-29T06:14:57;5.35;;;2.47;;
33993;SDS011;20673;48.980;8.138;2022-07-29T06:17:23;4.53;;;2.55;;
33993;SDS011;20673;48.980;8.138;2022-07-29T06:19:49;5.43;;;2.93;;
33993;SDS011;20673;48.980;8.138;2022-07-29T06:22:15;5.30;;;2.83;;
33993;SDS011;20673;48.980;8.138;2022-07-29T06:24:42;4.47;;;2.67;;
33993;SDS011;20673;48.980;8.138;2022-07-29T06:27:14;6.10;;;2.67;;
33993;SDS011;20673;48.980;8.138;2022-07-29T06:29:37;5.15;;;3.00;;
33993;SDS011;20673;48.980;8.138;2022-07-29T06:32:04;6.45;;;2.90;;
33993;SDS011;20673;48.980;8.138;2022-07-29T06:34:31;9.63;;;3.22;;
33993;SDS011;20673;48.980;8.138;2022-07-29T06:36:57;7.22;;;2.67;;
33993;SDS011;20673;48.980;8.138;2022-07-29T06:39:23;4.75;;;2.80;;
33993;SDS011;20673;48.980;8.138;2022-07-29T06:41:50;7.20;;;2.47;;
33993;SDS011;20673;48.980;8.138;2022-07-29T06:44:16;5.85;;;2.70;;
33993;SDS011;20673;48.980;8.138;2022-07-29T06:46:44;5.33;;;2.83;;
33993;SDS011;20673;48.980;8.138;2022-07-29T06:49:10;3.98;;;2.80;;
33993;SDS011;20673;48.980;8.138;2022-07-29T06:51:37;10.58;;;3.08;;
33993;SDS011;20673;48.980;8.138;2022-07-29T06:54:03;6.78;;;2.60;;
33993;SDS011;20673;48.980;8.138;2022-07-29T06:56:30;4.67;;;2.67;;
33993;SDS011;20673;48.980;8.138;2022-07-29T06:58:58;7.42;;;2.83;;
33993;SDS011;20673;48.980;8.138;2022-07-29T07:01:24;3.52;;;2.42;;
33993;SDS011;20673;48.980;8.138;2022-07-29T07:03:50;6.10;;;3.17;;
33993;SDS011;20673;48.980;8.138;2022-07-29T07:06:16;6.55;;;2.60;;
33993;SDS011;20673;48.980;8.138;2022-07-29T07:08:42;2.92;;;2.10;;
33993;SDS011;20673;48.980;8.138;2022-07-29T07:11:09;5.03;;;2.90;;
33993;SDS011;20673;48.980;8.138;2022-07-29T07:13:35;3.92;;;2.83;;
33993;SDS011;20673;48.980;8.138;2022-07-29T07:16:01;6.67;;;3.00;;
33993;SDS011;20673;48.980;8.138;2022-07-29T07:18:28;9.15;;;3.62;;
33993;SDS011;20673;48.980;8.138;2022-07-29T07:20:55;7.80;;;3.15;;
33993;SDS011;20673;48.980;8.138;2022-07-29T07:23:22;6.00;;;2.80;;
33993;SDS011;20673;48.980;8.138;2022-07-29T07:25:49;5.35;;;3.20;;
33993;SDS011;20673;48.980;8.138;2022-07-29T07:28:15;4.85;;;3.02;;
33993;SDS011;20673;48.980;8.138;2022-07-29T07:30:41;5.67;;;3.90;;
33993;SDS011;20673;48.980;8.138;2022-07-29T07:33:08;8.40;;;3.33;;
33993;SDS011;20673;48.980;8.138;2022-07-29T07:35:34;8.75;;;3.95;;
33993;SDS011;20673;48.980;8.138;2022-07-29T07:38:01;6.42;;;3.62;;
33993;SDS011;20673;48.980;8.138;2022-07-29T07:40:27;5.20;;;3.98;;
33993;SDS011;20673;48.980;8.138;2022-07-29T07:42:53;7.33;;;3.67;;
33993;SDS011;20673;48.980;8.138;2022-07-29T07:45:19;6.42;;;3.87;;
33993;SDS011;20673;48.980;8.138;2022-07-29T07:47:46;5.15;;;3.72;;
33993;SDS011;20673;48.980;8.138;2022-07-29T07:50:12;7.65;;;3.58;;
33993;SDS011;20673;48.980;8.138;2022-07-29T07:52:49;5.03;;;3.35;;
33993;SDS011;20673;48.980;8.138;2022-07-29T07:55:18;9.93;;;3.08;;
33993;SDS011;20673;48.980;8.138;2022-07-29T07:57:45;9.93;;;3.67;;
33993;SDS011;20673;48.980;8.138;2022-07-29T08:00:12;5.72;;;3.17;;
33993;SDS011;20673;48.980;8.138;2022-07-29T08:02:41;3.40;;;2.87;;
33993;SDS011;20673;48.980;8.138;2022-07-29T08:05:11;5.67;;;3.45;;
33993;SDS011;20673;48.980;8.138;2022-07-29T08:07:40;5.30;;;3.08;;
33993;SDS011;20673;48.980;8.138;2022-07-29T08:10:07;7.42;;;2.90;;
33993;SDS011;20673;48.980;8.138;2022-07-29T08:12:33;5.83;;;2.92;;
33993;SDS011;20673;48.980;8.138;2022-07-29T08:15:00;4.95;;;3.12;;
33993;SDS011;20673;48.980;8.138;2022-07-29T08:17:26;6.85;;;3.17;;
33993;SDS011;20673;48.980;8.138;2022-07-29T08:19:53;5.95;;;3.33;;
33993;SDS011;20673;48.980;8.138;2022-07-29T08:22:19;5.80;;;3.15;;
33993;SDS011;20673;48.980;8.138;2022-07-29T08:24:45;6.58;;;3.10;;
33993;SDS011;20673;48.980;8.138;2022-07-29T08:27:13;6.60;;;2.80;;
33993;SDS011;20673;48.980;8.138;2022-07-29T08:29:39;3.98;;;3.08;;
33993;SDS011;20673;48.980;8.138;2022-07-29T08:32:06;3.72;;;2.75;;
33993;SDS011;20673;48.980;8.138;2022-07-29T08:34:32;5.60;;;2.80;;
33993;SDS011;20673;48.980;8.138;2022-07-29T08:36:58;7.42;;;3.00;;
33993;SDS011;20673;48.980;8.138;2022-07-29T08:39:25;6.10;;;2.72;;
33993;SDS011;20673;48.980;8.138;2022-07-29T08:41:52;8.13;;;3.12;;
33993;SDS011;20673;48.980;8.138;2022-07-29T08:44:18;5.10;;;3.00;;
33993;SDS011;20673;48.980;8.138;2022-07-29T08:46:47;3.47;;;2.58;;
33993;SDS011;20673;48.980;8.138;2022-07-29T08:49:15;5.37;;;2.70;;
33993;SDS011;20673;48.980;8.138;2022-07-29T08:51:42;4.97;;;2.80;;
33993;SDS011;20673;48.980;8.138;2022-07-29T08:54:09;7.45;;;3.10;;
33993;SDS011;20673;48.980;8.138;2022-07-29T08:56:37;9.13;;;3.22;;
33993;SDS011;20673;48.980;8.138;2022-07-29T08:59:05;4.75;;;2.80;;
33993;SDS011;20673;48.980;8.138;2022-07-29T09:01:33;5.00;;;3.08;;
33993;SDS011;20673;48.980;8.138;2022-07-29T09:04:04;5.58;;;2.87;;
33993;SDS011;20673;48.980;8.138;2022-07-29T09:06:36;4.00;;;3.02;;
33993;SDS011;20673;48.980;8.138;2022-07-29T09:09:07;4.67;;;2.95;;
33993;SDS011;20673;48.980;8.138;2022-07-29T09:11:34;4.47;;;2.60;;
33993;SDS011;20673;48.980;8.138;2022-07-29T09:14:01;8.38;;;2.80;;
33993;SDS011;20673;48.980;8.138;2022-07-29T09:16:43;3.70;;;2.70;;
33993;SDS011;20673;48.980;8.138;2022-07-29T09:19:32;4.45;;;2.98;;
33993;SDS011;20673;48.980;8.138;2022-07-29T09:22:00;2.98;;;2.62;;
33993;SDS011;20673;48.980;8.138;2022-07-29T09:27:08;3.50;;;2.60;;
33993;SDS011;20673;48.980;8.138;2022-07-29T09:29:46;5.05;;;2.98;;
33993;SDS011;20673;48.980;8.138;2022-07-29T09:32:14;4.30;;;2.55;;
33993;SDS011;20673;48.980;8.138;2022-07-29T09:34:41;5.75;;;3.02;;
33993;SDS011;20673;48.980;8.138;2022-07-29T09:37:07;5.08;;;2.87;;
33993;SDS011;20673;48.980;8.138;2022-07-29T09:39:34;6.97;;;2.92;;
33993;SDS011;20673;48.980;8.138;2022-07-29T09:42:06;3.95;;;2.90;;
33993;SDS011;20673;48.980;8.138;2022-07-29T09:44:42;4.67;;;3.47;;
33993;SDS011;20673;48.980;8.138;2022-07-29T09:47:13;9.60;;;2.55;;
33993;SDS011;20673;48.980;8.138;2022-07-29T09:52:25;5.65;;;2.98;;
33993;SDS011;20673;48.980;8.138;2022-07-29T09:55:04;4.22;;;3.12;;
33993;SDS011;20673;48.980;8.138;2022-07-29T09:57:35;3.98;;;2.83;;
33993;SDS011;20673;48.980;8.138;2022-07-29T10:02:34;7.03;;;3.20;;
33993;SDS011;20673;48.980;8.138;2022-07-29T10:05:04;6.20;;;2.98;;
33993;SDS011;20673;48.980;8.138;2022-07-29T10:07:51;7.17;;;2.80;;
33993;SDS011;20673;48.980;8.138;2022-07-29T10:10:19;7.75;;;3.45;;
33993;SDS011;20673;48.980;8.138;2022-07-29T10:12:58;6.37;;;3.02;;
33993;SDS011;20673;48.980;8.138;2022-07-29T10:15:23;4.75;;;3.00;;
33993;SDS011;20673;48.980;8.138;2022-07-29T10:17:52;5.42;;;2.95;;
33993;SDS011;20673;48.980;8.138;2022-07-29T10:20:24;5.45;;;2.92;;
33993;SDS011;20673;48.980;8.138;2022-07-29T10:22:52;3.33;;;2.52;;
33993;SDS011;20673;48.980;8.138;2022-07-29T10:25:21;6.00;;;2.83;;
33993;SDS011;20673;48.980;8.138;2022-07-29T10:27:49;5.60;;;3.00;;
33993;SDS011;20673;48.980;8.138;2022-07-29T10:30:17;3.67;;;2.80;;
33993;SDS011;20673;48.980;8.138;2022-07-29T10:41:54;6.00;;;2.87;;
33993;SDS011;20673;48.980;8.138;2022-07-29T10:44:33;5.50;;;2.67;;
33993;SDS011;20673;48.980;8.138;2022-07-29T10:47:00;4.00;;;2.40;;
33993;SDS011;20673;48.980;8.138;2022-07-29T10:49:27;4.33;;;2.40;;
33993;SDS011;20673;48.980;8.138;2022-07-29T10:52:07;3.75;;;2.22;;
33993;SDS011;20673;48.980;8.138;2022-07-29T10:57:29;6.12;;;2.37;;
33993;SDS011;20673;48.980;8.138;2022-07-29T11:02:43;6.10;;;2.72;;
33993;SDS011;20673;48.980;8.138;2022-07-29T11:05:11;3.25;;;2.30;;
33993;SDS011;20673;48.980;8.138;2022-07-29T11:08:16;5.80;;;2.55;;
33993;SDS011;20673;48.980;8.138;2022-07-29T11:10:38;2.92;;;2.05;;
33993;SDS011;20673;48.980;8.138;2022-07-29T11:13:05;4.65;;;2.42;;
33993;SDS011;20673;48.980;8.138;2022-07-29T11:18:20;2.83;;;1.90;;
33993;SDS011;20673;48.980;8.138;2022-07-29T11:20:47;2.98;;;2.10;;
33993;SDS011;20673;48.980;8.138;2022-07-29T11:23:19;5.50;;;2.30;;
33993;SDS011;20673;48.980;8.138;2022-07-29T11:39:40;4.90;;;2.30;;
33993;SDS011;20673;48.980;8.138;2022-07-29T11:44:59;4.65;;;2.58;;
33993;SDS011;20673;48.980;8.138;2022-07-29T11:48:14;3.98;;;2.42;;
33993;SDS011;20673;48.980;8.138;2022-07-29T11:50:16;3.05;;;2.12;;
33993;SDS011;20673;48.980;8.138;2022-07-29T11:52:55;4.37;;;2.60;;
33993;SDS011;20673;48.980;8.138;2022-07-29T11:55:23;2.65;;;1.82;;
33993;SDS011;20673;48.980;8.138;2022-07-29T11:57:56;3.60;;;2.00;;
33993;SDS011;20673;48.980;8.138;2022-07-29T12:00:33;4.42;;;2.10;;
33993;SDS011;20673;48.980;8.138;2022-07-29T12:03:10;4.00;;;2.20;;
33993;SDS011;20673;48.980;8.138;2022-07-29T12:05:36;4.20;;;1.92;;
33993;SDS011;20673;48.980;8.138;2022-07-29T12:08:15;2.72;;;2.12;;
33993;SDS011;20673;48.980;8.138;2022-07-29T12:10:47;5.20;;;2.30;;
33993;SDS011;20673;48.980;8.138;2022-07-29T12:13:16;5.80;;;2.20;;
33993;SDS011;20673;48.980;8.138;2022-07-29T12:15:55;5.58;;;1.95;;
33993;SDS011;20673;48.980;8.138;2022-07-29T12:18:23;1.90;;;1.62;;
33993;SDS011;20673;48.980;8.138;2022-07-29T12:20:57;3.15;;;1.77;;
33993;SDS011;20673;48.980;8.138;2022-07-29T12:23:27;3.92;;;1.87;;
33993;SDS011;20673;48.980;8.138;2022-07-29T12:25:53;5.67;;;2.10;;
33993;SDS011;20673;48.980;8.138;2022-07-29T12:28:20;5.17;;;1.87;;
33993;SDS011;20673;48.980;8.138;2022-07-29T12:30:48;4.97;;;1.87;;
33993;SDS011;20673;48.980;8.138;2022-07-29T12:35:56;4.03;;;2.10;;
33993;SDS011;20673;48.980;8.138;2022-07-29T12:38:27;4.60;;;1.87;;
33993;SDS011;20673;48.980;8.138;2022-07-29T12:40:54;3.10;;;1.70;;
33993;SDS011;20673;48.980;8.138;2022-07-29T12:43:21;3.42;;;1.77;;
33993;SDS011;20673;48.980;8.138;2022-07-29T12:45:50;4.47;;;1.92;;
33993;SDS011;20673;48.980;8.138;2022-07-29T12:48:38;5.05;;;2.22;;
33993;SDS011;20673;48.980;8.138;2022-07-29T12:51:06;4.00;;;2.00;;
33993;SDS011;20673;48.980;8.138;2022-07-29T12:53:34;5.30;;;1.90;;
33993;SDS011;20673;48.980;8.138;2022-07-29T12:56:04;4.12;;;1.90;;
33993;SDS011;20673;48.980;8.138;2022-07-29T12:58:35;3.98;;;1.90;;
33993;SDS011;20673;48.980;8.138;2022-07-29T13:06:27;3.98;;;1.55;;
33993;SDS011;20673;48.980;8.138;2022-07-29T13:09:13;2.85;;;1.50;;
33993;SDS011;20673;48.980;8.138;2022-07-29T13:11:49;2.62;;;1.87;;
33993;SDS011;20673;48.980;8.138;2022-07-29T13:14:30;4.35;;;1.55;;
33993;SDS011;20673;48.980;8.138;2022-07-29T13:17:10;3.65;;;1.60;;
33993;SDS011;20673;48.980;8.138;2022-07-29T13:19:49;2.15;;;1.80;;
33993;SDS011;20673;48.980;8.138;2022-07-29T13:22:20;3.40;;;1.70;;
33993;SDS011;20673;48.980;8.138;2022-07-29T13:24:59;5.25;;;1.85;;
33993;SDS011;20673;48.980;8.138;2022-07-29T13:27:29;5.62;;;1.80;;
33993;SDS011;20673;48.980;8.138;2022-07-29T13:29:59;3.10;;;1.40;;
33993;SDS011;20673;48.980;8.138;2022-07-29T13:32:27;4.87;;;1.70;;
33993;SDS011;20673;48.980;8.138;2022-07-29T13:34:55;6.50;;;1.95;;
33993;SDS011;20673;48.980;8.138;2022-07-29T13:37:22;2.33;;;1.47;;
33993;SDS011;20673;48.980;8.138;2022-07-29T13:39:49;7.62;;;1.60;;
33993;SDS011;20673;48.980;8.138;2022-07-29T13:42:15;5.53;;;1.75;;
33993;SDS011;20673;48.980;8.138;2022-07-29T13:44:41;4.20;;;1.45;;
33993;SDS011;20673;48.980;8.138;2022-07-29T13:47:08;5.65;;;1.50;;
33993;SDS011;20673;48.980;8.138;2022-07-29T13:49:35;2.37;;;1.75;;
33993;SDS011;20673;48.980;8.138;2022-07-29T13:52:01;4.05;;;1.60;;
33993;SDS011;20673;48.980;8.138;2022-07-29T13:54:28;4.92;;;1.50;;
33993;SDS011;20673;48.980;8.138;2022-07-29T13:56:55;4.28;;;1.50;;
33993;SDS011;20673;48.980;8.138;2022-07-29T13:59:21;2.40;;;1.65;;
33993;SDS011;20673;48.980;8.138;2022-07-29T14:01:47;2.92;;;1.20;;
33993;SDS011;20673;48.980;8.138;2022-07-29T14:04:13;4.95;;;1.72;;
33993;SDS011;20673;48.980;8.138;2022-07-29T14:06:39;3.47;;;1.65;;
33993;SDS011;20673;48.980;8.138;2022-07-29T14:09:06;2.75;;;1.60;;
33993;SDS011;20673;48.980;8.138;2022-07-29T14:11:34;4.05;;;1.85;;
33993;SDS011;20673;48.980;8.138;2022-07-29T14:14:01;3.50;;;1.72;;
33993;SDS011;20673;48.980;8.138;2022-07-29T14:16:28;3.50;;;1.57;;
33993;SDS011;20673;48.980;8.138;2022-07-29T14:18:54;2.47;;;1.30;;
33993;SDS011;20673;48.980;8.138;2022-07-29T14:21:20;1.60;;;1.40;;
33993;SDS011;20673;48.980;8.138;2022-07-29T14:23:46;2.25;;;1.32;;
33993;SDS011;20673;48.980;8.138;2022-07-29T14:26:13;2.98;;;1.47;;
33993;SDS011;20673;48.980;8.138;2022-07-29T14:28:39;3.22;;;1.50;;
33993;SDS011;20673;48.980;8.138;2022-07-29T14:31:06;4.53;;;1.47;;
33993;SDS011;20673;48.980;8.138;2022-07-29T14:33:32;5.50;;;1.77;;
33993;SDS011;20673;48.980;8.138;2022-07-29T14:35:59;5.72;;;1.45;;
33993;SDS011;20673;48.980;8.138;2022-07-29T14:38:25;3.67;;;1.60;;
33993;SDS011;20673;48.980;8.138;2022-07-29T14:40:51;3.65;;;1.52;;
33993;SDS011;20673;48.980;8.138;2022-07-29T14:43:17;2.05;;;1.40;;
33993;SDS011;20673;48.980;8.138;2022-07-29T14:45:44;3.87;;;1.47;;
33993;SDS011;20673;48.980;8.138;2022-07-29T14:48:10;2.98;;;1.60;;
33993;SDS011;20673;48.980;8.138;2022-07-29T14:50:37;1.85;;;1.20;;
33993;SDS011;20673;48.980;8.138;2022-07-29T14:53:03;7.10;;;1.27;;
33993;SDS011;20673;48.980;8.138;2022-07-29T14:55:30;2.70;;;1.47;;
33993;SDS011;20673;48.980;8.138;2022-07-29T14:57:56;3.02;;;1.42;;
33993;SDS011;20673;48.980;8.138;2022-07-29T15:00:24;5.17;;;1.10;;
33993;SDS011;20673;48.980;8.138;2022-07-29T15:02:51;2.80;;;1.15;;
33993;SDS011;20673;48.980;8.138;2022-07-29T15:05:17;2.95;;;1.20;;
33993;SDS011;20673;48.980;8.138;2022-07-29T15:07:43;2.05;;;1.35;;
33993;SDS011;20673;48.980;8.138;2022-07-29T15:10:10;1.62;;;1.17;;
33993;SDS011;20673;48.980;8.138;2022-07-29T15:12:36;2.62;;;1.15;;
33993;SDS011;20673;48.980;8.138;2022-07-29T15:15:02;4.37;;;1.10;;
33993;SDS011;20673;48.980;8.138;2022-07-29T15:17:29;3.25;;;1.40;;
33993;SDS011;20673;48.980;8.138;2022-07-29T15:19:55;6.72;;;1.35;;
33993;SDS011;20673;48.980;8.138;2022-07-29T15:22:21;6.53;;;1.50;;
33993;SDS011;20673;48.980;8.138;2022-07-29T15:24:48;7.50;;;1.20;;
33993;SDS011;20673;48.980;8.138;2022-07-29T15:27:14;1.87;;;1.40;;
33993;SDS011;20673;48.980;8.138;2022-07-29T15:29:41;3.45;;;1.25;;
33993;SDS011;20673;48.980;8.138;2022-07-29T15:32:08;5.10;;;1.35;;
33993;SDS011;20673;48.980;8.138;2022-07-29T15:34:35;1.37;;;0.95;;
33993;SDS011;20673;48.980;8.138;2022-07-29T15:37:02;2.08;;;1.00;;
33993;SDS011;20673;48.980;8.138;2022-07-29T15:39:30;2.40;;;1.35;;
33993;SDS011;20673;48.980;8.138;2022-07-29T15:41:56;4.78;;;1.40;;
33993;SDS011;20673;48.980;8.138;2022-07-29T15:44:25;5.85;;;1.50;;
33993;SDS011;20673;48.980;8.138;2022-07-29T15:46:51;1.85;;;1.20;;
33993;SDS011;20673;48.980;8.138;2022-07-29T15:49:38;7.65;;;1.50;;
33993;SDS011;20673;48.980;8.138;2022-07-29T15:52:05;4.17;;;1.20;;
33993;SDS011;20673;48.980;8.138;2022-07-29T15:54:34;2.00;;;1.22;;
33993;SDS011;20673;48.980;8.138;2022-07-29T15:57:03;3.10;;;1.40;;
33993;SDS011;20673;48.980;8.138;2022-07-29T15:59:30;3.67;;;1.32;;
33993;SDS011;20673;48.980;8.138;2022-07-29T16:01:57;5.15;;;1.37;;
33993;SDS011;20673;48.980;8.138;2022-07-29T16:04:25;3.50;;;1.35;;